Time;durP1;ratioP1;P1;durP2;ratioP2;P2;SDS_P1;SDS_P2;PMS_P1;PMS_P2;Temp;Humidity;BMP_temperature;BMP_pressure;BME280_temperature;BME280_humidity;BME280_pressure;Samples;Min_cycle;Max_cycle;Signal;HPM_P1;HPM_P2
2023/05/09 00:01:16;;;;;;;2.30;2.10;;;;;;;9.08;100.00;98343.13;1709705;75;778147;-74
2023/05/09 00:03:47;;;;;;;2.70;2.35;;;;;;;9.08;100.00;98326.72;1702044;75;747991;-74
2023/05/09 00:06:20;;;;;;;2.20;2.00;;;;;;;9.01;100.00;98327.00;1711466;75;670641;-74
2023/05/09 00:08:50;;;;;;;2.70;2.20;;;;;;;9.04;100.00;98331.56;1631530;75;6688748;-76
2023/05/09 00:11:20;;;;;;;3.05;2.20;;;;;;;8.98;100.00;98327.16;1712469;75;686213;-76
2023/05/09 00:13:51;;;;;;;2.90;2.40;;;;;;;8.83;100.00;98333.16;1700243;75;953404;-75
2023/05/09 00:16:22;;;;;;;2.50;2.30;;;;;;;8.90;100.00;98324.69;1711131;75;711258;-76
2023/05/09 00:18:54;;;;;;;2.30;2.10;;;;;;;8.90;100.00;98327.44;1700598;75;852800;-76
2023/05/09 00:21:27;;;;;;;2.80;2.60;;;;;;;8.86;100.00;98326.03;1710869;75;683252;-74
2023/05/09 00:23:59;;;;;;;2.50;2.30;;;;;;;8.86;100.00;98321.31;1702322;75;740048;-74
2023/05/09 00:26:29;;;;;;;2.20;2.00;;;;;;;8.81;100.00;98318.44;1711857;75;672447;-74
2023/05/09 00:28:59;;;;;;;2.50;2.25;;;;;;;8.83;100.00;98314.03;1702490;75;743503;-76
2023/05/09 00:31:30;;;;;;;2.20;2.00;;;;;;;8.78;100.00;98313.84;1710114;75;823583;-74
2023/05/09 00:34:00;;;;;;;2.50;2.30;;;;;;;8.69;100.00;98312.59;1702502;75;753899;-77
2023/05/09 00:36:34;;;;;;;2.45;2.25;;;;;;;8.79;100.00;98323.56;1711598;75;678239;-75
2023/05/09 00:39:04;;;;;;;2.10;1.90;;;;;;;8.83;100.00;98318.75;1688922;75;1872887;-75
2023/05/09 00:41:34;;;;;;;2.20;2.00;;;;;;;8.80;100.00;98314.91;1708087;75;989904;-76
2023/05/09 00:44:04;;;;;;;2.15;1.95;;;;;;;8.82;100.00;98309.03;1702887;75;746818;-77
2023/05/09 00:46:35;;;;;;;2.30;2.10;;;;;;;8.81;100.00;98323.88;1710654;75;776945;-76
2023/05/09 00:49:05;;;;;;;2.40;2.20;;;;;;;8.77;100.00;98310.34;1701899;75;762199;-77
2023/05/09 00:51:39;;;;;;;2.40;2.10;;;;;;;8.77;100.00;98306.88;1708969;75;922722;-74
2023/05/09 00:54:10;;;;;;;2.60;2.30;;;;;;;8.78;100.00;98303.69;1701448;75;820543;-75
2023/05/09 00:56:41;;;;;;;2.30;2.10;;;;;;;8.74;100.00;98292.91;1711922;75;684308;-76
2023/05/09 00:59:11;;;;;;;2.55;2.35;;;;;;;8.78;100.00;98300.97;1702969;75;735320;-75
2023/05/09 01:01:42;;;;;;;3.20;2.30;;;;;;;8.76;100.00;98294.44;1711352;75;713633;-75
2023/05/09 01:04:12;;;;;;;2.40;2.20;;;;;;;8.79;100.00;98288.84;1703011;75;751098;-75
2023/05/09 01:06:58;;;;;;;2.90;2.40;;;;;;;8.72;100.00;98295.31;1709452;75;877526;-75
2023/05/09 01:09:35;;;;;;;2.30;2.10;;;;;;;8.66;100.00;98299.06;1700846;75;854849;-74
2023/05/09 01:12:13;;;;;;;;;;;;;;;8.70;100.00;98292.28;1703025;75;758716;-76
2023/05/09 01:14:52;;;;;;;2.70;2.30;;;;;;;8.72;100.00;98289.09;1711881;75;673735;-76
2023/05/09 01:17:37;;;;;;;2.70;2.50;;;;;;;8.66;100.00;98288.94;1663366;75;4073443;-75
2023/05/09 01:20:16;;;;;;;2.90;2.60;;;;;;;8.67;100.00;98284.22;1703899;75;674828;-76
2023/05/09 01:23:11;;;;;;;3.10;2.80;;;;;;;8.65;100.00;98292.84;1708244;75;968255;-76
2023/05/09 01:26:04;;;;;;;2.65;2.40;;;;;;;8.68;100.00;98289.25;1699670;75;883699;-74
2023/05/09 01:28:57;;;;;;;2.90;2.60;;;;;;;8.68;100.00;98291.19;1703153;75;678898;-75
2023/05/09 01:31:30;;;;;;;2.60;2.40;;;;;;;8.68;100.00;98294.72;1703030;75;679766;-75
2023/05/09 01:34:04;;;;;;;2.55;2.35;;;;;;;8.67;100.00;98292.41;1711272;75;686445;-76
2023/05/09 01:36:36;;;;;;;2.80;2.60;;;;;;;8.69;100.00;98276.34;1700262;75;929850;-76
2023/05/09 01:39:12;;;;;;;2.90;2.40;;;;;;;8.69;100.00;98290.00;1711504;75;680982;-76
2023/05/09 01:41:43;;;;;;;2.70;2.50;;;;;;;8.59;100.00;98282.97;1700914;75;831121;-74
2023/05/09 01:44:15;;;;;;;2.50;2.30;;;;;;;8.67;100.00;98284.97;1710913;75;675665;-74
2023/05/09 01:46:49;;;;;;;2.40;2.20;;;;;;;8.71;100.00;98287.59;1628269;75;6924615;-75
2023/05/09 01:49:21;;;;;;;2.30;2.10;;;;;;;8.73;100.00;98285.16;1710223;75;822347;-75
2023/05/09 01:51:53;;;;;;;2.40;2.20;;;;;;;8.69;100.00;98290.00;1701351;75;758880;-73
2023/05/09 01:54:27;;;;;;;3.50;3.20;;;;;;;8.56;100.00;98297.50;1711727;75;675427;-75
2023/05/09 01:56:58;;;;;;;5.45;4.95;;;;;;;8.50;100.00;98303.53;1690644;75;1712667;-74
2023/05/09 01:59:30;;;;;;;4.10;3.70;;;;;;;8.61;100.00;98302.38;1709826;75;829687;-75
2023/05/09 02:02:05;;;;;;;4.05;3.65;;;;;;;8.63;100.00;98297.25;1702402;75;759922;-74
2023/05/09 02:04:36;;;;;;;3.30;3.00;;;;;;;8.70;100.00;98291.50;1711606;75;677666;-75
2023/05/09 02:07:08;;;;;;;3.65;3.35;;;;;;;8.74;100.00;98287.44;1701711;75;736764;-77
2023/05/09 02:09:38;;;;;;;4.10;3.70;;;;;;;8.73;100.00;98287.88;1684749;75;2936013;-76
2023/05/09 02:12:09;;;;;;;3.65;3.35;;;;;;;8.82;100.00;98285.19;1689654;75;1783923;-74
2023/05/09 02:14:39;;;;;;;3.10;2.80;;;;;;;8.84;100.00;98299.16;1709048;75;894455;-76
2023/05/09 02:17:15;;;;;;;4.25;3.00;;;;;;;8.90;100.00;98297.38;1701429;75;782265;-76
2023/05/09 02:19:46;;;;;;;2.50;2.30;;;;;;;8.91;100.00;98293.44;1702180;75;824075;-72
2023/05/09 02:22:17;;;;;;;2.50;2.20;;;;;;;8.92;100.00;98288.72;1711898;75;739321;-74
2023/05/09 02:24:47;;;;;;;5.50;4.90;;;;;;;8.68;100.00;98288.47;1704178;75;675762;-74
2023/05/09 02:27:18;;;;;;;5.10;4.60;;;;;;;8.82;100.00;98292.63;1711705;75;671853;-74
2023/05/09 02:29:52;;;;;;;4.10;3.70;;;;;;;8.92;100.00;98294.19;1701603;75;871753;-75
2023/05/09 02:32:29;;;;;;;3.20;2.90;;;;;;;8.96;100.00;98290.13;1712145;75;682074;-75
2023/05/09 02:35:01;;;;;;;3.10;2.80;;;;;;;9.02;100.00;98284.84;1702978;75;813027;-76
2023/05/09 02:37:32;;;;;;;3.10;2.80;;;;;;;9.04;100.00;98285.13;1710304;75;847914;-75
2023/05/09 02:40:04;;;;;;;4.55;3.60;;;;;;;8.98;100.00;98284.22;1702889;75;753296;-75
2023/05/09 02:42:34;;;;;;;4.90;3.90;;;;;;;8.99;100.00;98282.25;1711765;75;674841;-74
2023/05/09 02:45:06;;;;;;;4.70;3.85;;;;;;;9.02;100.00;98292.25;1702858;75;689609;-75
2023/05/09 02:47:39;;;;;;;4.50;4.10;;;;;;;9.02;100.00;98284.06;1711254;75;675113;-74
2023/05/09 02:50:11;;;;;;;3.90;3.50;;;;;;;9.01;100.00;98285.28;1703071;75;680019;-74
2023/05/09 02:52:41;;;;;;;5.00;4.10;;;;;;;9.11;100.00;98286.84;1710436;75;803860;-73
2023/05/09 02:55:12;;;;;;;4.00;3.60;;;;;;;9.10;100.00;98288.81;1699708;75;967102;-74
2023/05/09 02:57:43;;;;;;;3.40;3.10;;;;;;;9.12;100.00;98288.38;1710707;75;706131;-74
2023/05/09 03:00:16;;;;;;;3.60;3.30;;;;;;;9.08;100.00;98291.22;1699646;75;944056;-74
2023/05/09 03:02:49;;;;;;;3.50;3.20;;;;;;;9.07;100.00;98292.44;1708034;75;977518;-76
2023/05/09 03:05:20;;;;;;;3.90;3.60;;;;;;;8.99;100.00;98293.91;1699663;75;960345;-75
2023/05/09 03:07:50;;;;;;;3.50;3.20;;;;;;;9.01;100.00;98296.97;1712466;75;692413;-74
2023/05/09 03:10:21;;;;;;;4.60;4.20;;;;;;;8.94;100.00;98289.81;1703359;75;746845;-76
2023/05/09 03:12:51;;;;;;;4.20;3.80;;;;;;;8.91;100.00;98292.69;1688497;75;2686494;-75
2023/05/09 03:15:22;;;;;;;5.00;4.50;;;;;;;8.87;100.00;98290.06;1700935;75;928496;-76
2023/05/09 03:17:56;;;;;;;4.10;3.70;;;;;;;8.92;100.00;98292.25;1713783;75;688961;-77
2023/05/09 03:20:29;;;;;;;4.00;3.70;;;;;;;8.83;100.00;98285.97;1704228;75;753523;-76
2023/05/09 03:22:59;;;;;;;5.30;4.30;;;;;;;8.80;100.00;98295.03;1711501;75;678930;-74
2023/05/09 03:25:29;;;;;;;4.20;3.80;;;;;;;8.83;100.00;98294.19;1702564;75;744681;-80
2023/05/09 03:28:00;;;;;;;4.30;3.90;;;;;;;8.80;100.00;98297.78;1711203;75;676928;-75
2023/05/09 03:30:30;;;;;;;3.35;3.05;;;;;;;8.85;100.00;98297.97;1702370;75;730688;-75
2023/05/09 03:33:03;;;;;;;4.50;4.10;;;;;;;8.78;100.00;98309.16;1710931;75;680835;-74
2023/05/09 03:35:33;;;;;;;5.15;4.65;;;;;;;8.73;100.00;98298.81;1702546;75;733584;-74
2023/05/09 03:38:04;;;;;;;4.60;4.20;;;;;;;8.68;100.00;98300.16;1711407;75;672271;-75
2023/05/09 03:40:34;;;;;;;4.65;4.25;;;;;;;8.69;100.00;98307.13;1703087;75;737310;-73
2023/05/09 03:43:04;;;;;;;4.40;4.00;;;;;;;8.67;100.00;98306.06;1711450;75;674988;-77
2023/05/09 03:45:34;;;;;;;3.80;3.50;;;;;;;8.71;100.00;98298.50;1687631;75;1976750;-75
2023/05/09 03:48:10;;;;;;;4.15;3.75;;;;;;;8.69;100.00;98307.13;1711727;75;678554;-76
2023/05/09 03:50:40;;;;;;;4.20;3.80;;;;;;;8.68;100.00;98311.09;1699907;75;934406;-74
2023/05/09 03:53:10;;;;;;;3.80;3.50;;;;;;;8.74;100.00;98316.72;1711946;75;676839;-74
2023/05/09 03:55:41;;;;;;;3.80;3.40;;;;;;;8.72;100.00;98306.22;1699544;75;936051;-75
2023/05/09 03:58:11;;;;;;;4.05;3.65;;;;;;;8.73;100.00;98313.22;1707859;75;958654;-73
2023/05/09 04:00:42;;;;;;;4.60;4.20;;;;;;;8.71;100.00;98314.88;1701878;75;741291;-74
2023/05/09 04:03:15;;;;;;;4.75;4.35;;;;;;;8.73;100.00;98317.91;1699038;75;1751829;-73
2023/05/09 04:05:45;;;;;;;5.15;4.65;;;;;;;8.75;100.00;98318.22;1700308;75;864442;-75
2023/05/09 04:08:16;;;;;;;4.90;4.40;;;;;;;8.76;100.00;98317.03;1708989;75;913996;-76
2023/05/09 04:10:46;;;;;;;4.40;4.00;;;;;;;8.74;100.00;98317.47;1699305;75;978885;-74
2023/05/09 04:13:16;;;;;;;4.90;4.45;;;;;;;8.81;100.00;98321.91;1711673;75;675251;-74
2023/05/09 04:15:46;;;;;;;5.35;4.85;;;;;;;8.74;100.00;98322.94;1701842;75;761476;-75
2023/05/09 04:18:19;;;;;;;5.65;5.05;;;;;;;8.77;100.00;98329.47;1709813;75;829144;-76
2023/05/09 04:20:49;;;;;;;5.70;5.20;;;;;;;8.77;100.00;98328.72;1701684;75;788332;-75
2023/05/09 04:23:19;;;;;;;5.55;5.05;;;;;;;8.81;100.00;98321.16;1710239;75;818196;-74
2023/05/09 04:25:50;;;;;;;7.30;5.90;;;;;;;8.80;100.00;98325.84;1702597;75;752618;-75
2023/05/09 04:28:20;;;;;;;5.75;5.15;;;;;;;8.88;100.00;98326.34;1710673;75;816591;-75
2023/05/09 04:30:50;;;;;;;5.25;4.75;;;;;;;8.87;100.00;98325.56;1678631;75;2805178;-75
2023/05/09 04:33:23;;;;;;;5.65;5.15;;;;;;;8.93;100.00;98326.53;1712496;75;683194;-74
2023/05/09 04:35:53;;;;;;;5.00;4.50;;;;;;;9.04;100.00;98323.38;1699307;75;997264;-75
2023/05/09 04:38:23;;;;;;;4.20;3.80;;;;;;;9.08;100.00;98329.47;1711421;75;676014;-74
2023/05/09 04:40:53;;;;;;;4.30;3.90;;;;;;;9.13;100.00;98331.59;1700686;75;868269;-74
2023/05/09 04:43:25;;;;;;;3.45;3.15;;;;;;;9.22;100.00;98330.13;1708898;75;898218;-73
2023/05/09 04:45:55;;;;;;;3.90;3.50;;;;;;;9.26;100.00;98328.78;1687542;75;1943163;-76
2023/05/09 04:48:28;;;;;;;4.40;4.00;;;;;;;9.28;100.00;98329.06;1709132;75;882766;-75
2023/05/09 04:50:58;;;;;;;3.40;3.10;;;;;;;9.41;100.00;98334.44;1702737;75;747507;-77
2023/05/09 04:53:30;;;;;;;3.60;3.30;;;;;;;9.42;100.00;98333.22;1711495;75;685664;-75
2023/05/09 04:56:01;;;;;;;4.15;3.70;;;;;;;9.43;100.00;98337.50;1702522;75;725630;-74
2023/05/09 04:58:33;;;;;;;5.00;3.60;;;;;;;9.42;100.00;98333.22;1710822;75;677548;-73
2023/05/09 05:01:03;;;;;;;4.10;3.50;;;;;;;9.42;100.00;98322.28;1702495;75;749013;-74
2023/05/09 05:03:36;;;;;;;3.30;3.00;;;;;;;9.44;100.00;98332.78;1707864;75;928293;-73
2023/05/09 05:06:06;;;;;;;4.25;3.85;;;;;;;9.34;100.00;98327.28;1700169;75;847878;-76
2023/05/09 05:08:38;;;;;;;4.20;3.60;;;;;;;9.41;100.00;98334.44;1710383;75;751069;-73
2023/05/09 05:11:08;;;;;;;3.55;3.25;;;;;;;9.42;100.00;98332.47;1702816;75;743760;-73
2023/05/09 05:13:38;;;;;;;3.80;3.45;;;;;;;9.50;100.00;98339.16;1712208;75;678153;-72
2023/05/09 05:16:08;;;;;;;3.60;3.30;;;;;;;9.47;100.00;98346.28;1699046;75;971256;-73
2023/05/09 05:18:41;;;;;;;3.90;3.50;;;;;;;9.50;100.00;98350.88;1711313;75;685687;-74
2023/05/09 05:21:11;;;;;;;3.35;3.05;;;;;;;9.52;100.00;98344.94;1690295;75;1729909;-72
2023/05/09 05:23:42;;;;;;;3.20;2.85;;;;;;;9.51;100.00;98346.16;1709777;75;847519;-76
2023/05/09 05:26:12;;;;;;;3.85;3.50;;;;;;;9.52;100.00;98342.97;1701092;75;853064;-75
2023/05/09 05:28:42;;;;;;;3.95;3.55;;;;;;;9.54;100.00;98350.72;1711815;75;675128;-75
2023/05/09 05:31:12;;;;;;;3.35;3.05;;;;;;;9.52;100.00;98340.22;1702843;75;752733;-72
2023/05/09 05:33:45;;;;;;;3.80;3.20;;;;;;;9.61;100.00;98350.44;1711020;75;683285;-74
2023/05/09 05:36:15;;;;;;;3.00;2.70;;;;;;;9.68;100.00;98355.63;1699865;75;916649;-74
2023/05/09 05:38:51;;;;;;;3.35;2.80;;;;;;;9.73;100.00;98355.03;1711598;75;688516;-73
2023/05/09 05:41:22;;;;;;;3.25;2.95;;;;;;;9.70;100.00;98345.00;1703110;75;747310;-72
2023/05/09 05:43:52;;;;;;;2.40;2.20;;;;;;;9.81;100.00;98350.03;1711745;75;679247;-75
2023/05/09 05:46:22;;;;;;;2.40;2.20;;;;;;;9.88;100.00;98349.72;1702493;75;745569;-72
2023/05/09 05:48:55;;;;;;;2.45;2.20;;;;;;;9.90;100.00;98350.03;1710992;75;759583;-74
2023/05/09 05:51:25;;;;;;;2.40;2.20;;;;;;;9.89;100.00;98345.78;1702439;75;749434;-77
2023/05/09 05:53:55;;;;;;;3.60;2.20;;;;;;;9.99;100.00;98349.31;1711281;75;675677;-75
2023/05/09 05:56:26;;;;;;;1.85;1.75;;;;;;;10.08;100.00;98354.00;1700971;75;823227;-74
2023/05/09 05:58:56;;;;;;;2.10;1.90;;;;;;;9.98;100.00;98343.06;1698729;75;1784627;-75
2023/05/09 06:01:26;;;;;;;2.25;2.05;;;;;;;10.07;100.00;98352.50;1702491;75;746478;-72
2023/05/09 06:03:59;;;;;;;2.40;2.00;;;;;;;10.19;100.00;98346.88;1711262;75;686586;-76
2023/05/09 06:06:29;;;;;;;2.20;2.00;;;;;;;10.02;100.00;98342.91;1701957;75;745094;-73
2023/05/09 06:09:00;;;;;;;2.20;2.00;;;;;;;10.12;100.00;98338.97;1710556;75;685703;-74
2023/05/09 06:11:30;;;;;;;2.65;2.35;;;;;;;10.20;100.00;98350.38;1702246;75;748325;-73
2023/05/09 06:14:00;;;;;;;4.10;2.00;;;;;;;10.13;100.00;98345.97;1711446;75;676936;-73
2023/05/09 06:16:31;;;;;;;2.50;2.15;;;;;;;10.20;100.00;98344.91;1701972;75;760379;-75
2023/05/09 06:19:03;;;;;;;2.00;1.80;;;;;;;10.08;100.00;98341.09;1710243;75;802475;-74
2023/05/09 06:21:33;;;;;;;2.90;2.60;;;;;;;9.81;100.00;98341.81;1702263;75;766414;-74
2023/05/09 06:24:04;;;;;;;4.50;3.05;;;;;;;9.75;100.00;98341.66;1711634;75;674520;-74
2023/05/09 06:26:34;;;;;;;3.30;3.00;;;;;;;9.87;100.00;98340.00;1700974;75;828634;-73
2023/05/09 06:29:05;;;;;;;2.85;2.35;;;;;;;9.95;100.00;98343.22;1711489;75;672183;-73
2023/05/09 06:31:37;;;;;;;2.20;2.00;;;;;;;10.02;100.00;98340.19;1703051;75;744782;-74
2023/05/09 06:34:10;;;;;;;2.40;2.20;;;;;;;9.80;100.00;98337.56;1711695;75;680094;-73
2023/05/09 06:36:40;;;;;;;2.85;2.10;;;;;;;10.13;100.00;98343.22;1702903;75;755735;-74
2023/05/09 06:39:11;;;;;;;2.90;2.45;;;;;;;10.19;100.00;98335.16;1711863;75;673616;-74
2023/05/09 06:41:41;;;;;;;3.35;3.00;;;;;;;10.15;100.00;98335.34;1702365;75;753698;-77
2023/05/09 06:44:11;;;;;;;3.35;2.40;;;;;;;10.41;100.00;98332.28;1711784;75;673292;-75
2023/05/09 06:46:41;;;;;;;2.40;2.20;;;;;;;10.55;100.00;98328.94;1701844;75;759995;-77
2023/05/09 06:49:14;;;;;;;2.55;1.90;;;;;;;10.69;100.00;98324.03;1709782;75;800731;-74
2023/05/09 06:51:44;;;;;;;4.50;2.25;;;;;;;10.60;100.00;98328.31;1700856;75;819907;-77
2023/05/09 06:54:15;;;;;;;2.55;2.25;;;;;;;10.72;100.00;98323.88;1710855;75;679071;-74
2023/05/09 06:56:46;;;;;;;2.75;2.35;;;;;;;10.88;100.00;98320.03;1702378;75;758822;-74
2023/05/09 06:59:16;;;;;;;2.90;2.60;;;;;;;10.85;100.00;98321.72;1711048;75;674937;-74
2023/05/09 07:01:46;;;;;;;3.30;2.80;;;;;;;10.83;100.00;98318.69;1702232;75;745319;-74
2023/05/09 07:04:19;;;;;;;3.50;2.60;;;;;;;10.93;100.00;98319.41;1711017;75;673768;-75
2023/05/09 07:06:49;;;;;;;3.15;2.85;;;;;;;11.00;100.00;98323.81;1701836;75;744412;-74
2023/05/09 07:09:22;;;;;;;4.00;3.50;;;;;;;10.77;99.08;98320.50;1711284;75;677868;-75
2023/05/09 07:11:52;;;;;;;3.75;2.80;;;;;;;10.93;100.00;98311.19;1702011;75;753835;-74
2023/05/09 07:14:23;;;;;;;3.00;2.70;;;;;;;11.15;96.33;98313.69;1710054;75;687181;-75
2023/05/09 07:16:53;;;;;;;3.00;2.75;;;;;;;11.11;97.67;98317.81;1701888;75;737404;-74
2023/05/09 07:19:26;;;;;;;3.05;2.75;;;;;;;11.14;97.08;98312.19;1711458;75;675442;-75
2023/05/09 07:21:56;;;;;;;3.35;1.95;;;;;;;11.49;92.99;98315.19;1702063;75;745978;-74
2023/05/09 07:24:26;;;;;;;1.85;1.75;;;;;;;11.73;92.22;98309.72;1710787;75;677881;-74
2023/05/09 07:26:57;;;;;;;2.10;1.70;;;;;;;11.91;91.56;98297.16;1702295;75;743826;-74
2023/05/09 07:29:27;;;;;;;3.30;3.00;;;;;;;11.89;91.17;98300.34;1711170;75;674160;-74
2023/05/09 07:31:57;;;;;;;3.15;2.85;;;;;;;11.71;91.29;98303.97;1702624;75;732656;-75
2023/05/09 07:34:30;;;;;;;3.10;2.80;;;;;;;11.93;89.11;98309.16;1710529;75;671703;-76
2023/05/09 07:37:00;;;;;;;2.75;2.40;;;;;;;12.20;88.84;98303.94;1702386;75;741523;-73
2023/05/09 07:39:30;;;;;;;3.85;2.40;;;;;;;12.17;88.03;98299.38;1711122;75;680609;-74
2023/05/09 07:42:00;;;;;;;2.30;2.10;;;;;;;12.34;85.00;98290.22;1702211;75;749143;-75
2023/05/09 07:44:31;;;;;;;2.00;1.60;;;;;;;12.55;85.12;98282.06;1710487;75;678198;-74
2023/05/09 07:47:01;;;;;;;3.75;2.65;;;;;;;12.29;85.38;98288.13;1701707;75;749119;-76
2023/05/09 07:49:34;;;;;;;4.50;3.00;;;;;;;12.54;84.85;98292.31;1711130;75;679448;-74
2023/05/09 07:52:04;;;;;;;4.45;3.25;;;;;;;12.60;83.62;98286.16;1702120;75;740455;-74
2023/05/09 07:54:34;;;;;;;3.90;3.10;;;;;;;12.57;85.14;98276.88;1711232;75;672019;-74
2023/05/09 07:57:04;;;;;;;2.85;2.50;;;;;;;13.01;84.43;98284.31;1702190;75;738471;-77
2023/05/09 07:59:35;;;;;;;3.90;2.70;;;;;;;13.04;80.00;98282.63;1710300;75;674883;-75
2023/05/09 08:02:05;;;;;;;5.35;3.75;;;;;;;12.54;83.43;98277.81;1702082;75;740808;-74
2023/05/09 08:04:39;;;;;;;6.10;4.25;;;;;;;12.10;86.28;98276.56;1710923;75;671975;-75
2023/05/09 08:07:10;;;;;;;5.20;3.70;;;;;;;12.54;85.42;98266.84;1702093;75;748797;-74
2023/05/09 08:09:40;;;;;;;3.40;3.00;;;;;;;13.07;84.66;98279.66;1710713;75;684495;-74
2023/05/09 08:12:11;;;;;;;3.80;2.05;;;;;;;13.36;83.35;98269.84;1702272;75;739411;-76
2023/05/09 08:14:41;;;;;;;3.70;2.90;;;;;;;13.32;81.50;98272.78;1710607;75;702368;-74
2023/05/09 08:17:11;;;;;;;4.90;2.15;;;;;;;13.24;80.24;98266.16;1702087;75;748449;-75
2023/05/09 08:19:44;;;;;;;4.75;3.45;;;;;;;13.08;81.94;98270.16;1710523;75;676894;-74
2023/05/09 08:22:20;;;;;;;3.05;2.65;;;;;;;13.19;82.19;98261.34;1701707;75;746909;-73
2023/05/09 08:24:50;;;;;;;3.40;2.90;;;;;;;13.12;81.34;98259.72;1702202;75;679857;-73
2023/05/09 08:27:20;;;;;;;4.00;3.15;;;;;;;13.06;81.46;98258.91;1711158;75;676667;-74
2023/05/09 08:29:50;;;;;;;3.35;2.80;;;;;;;13.42;81.74;98256.91;1702960;75;674906;-72
2023/05/09 08:32:21;;;;;;;3.70;2.80;;;;;;;13.31;82.00;98256.78;1709625;75;823729;-74
2023/05/09 08:34:54;;;;;;;3.00;2.70;;;;;;;13.52;83.67;98260.31;1703215;75;676449;-73
2023/05/09 08:37:26;;;;;;;4.30;3.05;;;;;;;13.42;85.74;98256.91;1710454;75;709881;-74
2023/05/09 08:39:56;;;;;;;4.70;3.40;;;;;;;13.22;83.68;98263.88;1701923;75;799110;-74
2023/05/09 08:42:26;;;;;;;5.90;3.90;;;;;;;12.84;83.96;98261.31;1696798;75;1923231;-75
2023/05/09 08:44:57;;;;;;;4.30;3.30;;;;;;;13.08;83.28;98259.16;1703647;75;675437;-72
2023/05/09 08:47:28;;;;;;;3.70;3.00;;;;;;;12.97;82.43;98272.75;1676404;75;3708193;-75
2023/05/09 08:50:01;;;;;;;4.00;3.00;;;;;;;12.94;84.93;98268.19;1666808;75;3915964;-74
2023/05/09 08:52:34;;;;;;;4.50;3.70;;;;;;;12.94;85.02;98268.97;1711795;75;679430;-74
2023/05/09 08:55:07;;;;;;;4.55;3.35;;;;;;;12.96;84.79;98274.75;1704411;75;678665;-75
2023/05/09 08:57:38;;;;;;;4.10;3.70;;;;;;;12.87;87.77;98268.59;1712214;75;675694;-74
2023/05/09 09:00:16;;;;;;;5.15;4.15;;;;;;;12.76;84.70;98261.69;1704118;75;672472;-76
2023/05/09 09:02:46;;;;;;;4.00;3.60;;;;;;;12.91;85.22;98267.16;1710891;75;759565;-74
2023/05/09 09:05:19;;;;;;;4.25;3.00;;;;;;;12.95;84.00;98273.22;1702571;75;757808;-74
2023/05/09 09:07:50;;;;;;;3.05;2.30;;;;;;;13.39;82.12;98275.13;1712111;75;670947;-77
2023/05/09 09:10:24;;;;;;;3.20;2.70;;;;;;;13.38;81.09;98259.13;1699445;75;948543;-73
2023/05/09 09:12:56;;;;;;;3.60;2.70;;;;;;;13.47;81.74;98258.22;1712051;75;679300;-76
2023/05/09 09:15:28;;;;;;;4.35;3.20;;;;;;;13.32;82.59;98263.78;1703293;75;745384;-76
2023/05/09 09:18:02;;;;;;;5.15;3.80;;;;;;;13.31;82.66;98263.03;1709047;75;898932;-73
2023/05/09 09:20:36;;;;;;;5.90;4.60;;;;;;;13.16;82.74;98254.81;1701414;75;829186;-75
2023/05/09 09:23:11;;;;;;;5.20;4.05;;;;;;;13.26;83.40;98251.94;1710098;75;857940;-74
2023/05/09 09:25:41;;;;;;;4.80;3.90;;;;;;;13.23;81.52;98245.41;1699555;75;978414;-74
2023/05/09 09:28:11;;;;;;;2.95;2.55;;;;;;;13.69;77.96;98242.00;1711890;75;682944;-74
2023/05/09 09:30:47;;;;;;;4.00;3.10;;;;;;;13.90;78.39;98244.72;1699530;75;957194;-75
2023/05/09 09:33:24;;;;;;;3.60;2.90;;;;;;;14.01;77.38;98242.09;1703913;75;690686;-73
2023/05/09 09:35:59;;;;;;;3.60;3.20;;;;;;;13.90;74.90;98239.97;1708991;75;895384;-73
2023/05/09 09:38:29;;;;;;;3.80;3.10;;;;;;;13.86;78.00;98247.69;1691437;75;1721057;-73
2023/05/09 09:41:01;;;;;;;4.85;3.70;;;;;;;13.84;78.84;98242.66;1709901;75;835282;-75
2023/05/09 09:43:32;;;;;;;4.40;3.80;;;;;;;13.74;80.90;98241.31;1704041;75;676641;-73
2023/05/09 09:46:05;;;;;;;4.70;3.90;;;;;;;13.75;78.64;98247.56;1711262;75;674100;-76
2023/05/09 09:48:38;;;;;;;5.00;4.10;;;;;;;13.56;81.22;98245.09;1701282;75;897187;-77
2023/05/09 09:51:17;;;;;;;5.40;4.60;;;;;;;13.56;80.39;98250.59;1711536;75;675110;-73
2023/05/09 09:53:48;;;;;;;4.80;4.30;;;;;;;13.64;79.76;98239.94;1703194;75;743695;-74
2023/05/09 09:56:21;;;;;;;5.00;3.80;;;;;;;13.48;79.83;98232.25;1711646;75;672293;-74
2023/05/09 09:58:51;;;;;;;4.80;4.00;;;;;;;13.60;79.26;98240.16;1700626;75;876472;-73
2023/05/09 10:01:22;;;;;;;3.90;3.10;;;;;;;14.04;77.57;98227.38;1712095;75;672796;-75
2023/05/09 10:03:52;;;;;;;3.50;2.80;;;;;;;14.44;75.45;98237.50;1700326;75;889663;-75
2023/05/09 10:06:25;;;;;;;3.00;2.70;;;;;;;14.56;77.07;98229.38;1711506;75;673864;-75
2023/05/09 10:08:55;;;;;;;3.20;2.75;;;;;;;14.61;76.25;98225.91;1688630;75;1865381;-75
2023/05/09 10:11:26;;;;;;;3.50;3.05;;;;;;;14.71;76.11;98221.72;1708416;75;981829;-76
2023/05/09 10:13:56;;;;;;;3.45;3.00;;;;;;;14.81;76.66;98223.03;1701262;75;835698;-74
2023/05/09 10:16:26;;;;;;;4.05;3.55;;;;;;;14.76;75.38;98223.00;1709337;75;871455;-75
2023/05/09 10:18:57;;;;;;;5.50;3.70;;;;;;;14.56;74.91;98215.59;1699135;75;973628;-72
2023/05/09 10:21:30;;;;;;;3.95;3.55;;;;;;;14.90;75.96;98217.34;1711083;75;704555;-75
2023/05/09 10:24:01;;;;;;;7.35;4.30;;;;;;;14.62;74.06;98210.88;1701980;75;774906;-73
2023/05/09 10:26:34;;;;;;;4.05;3.50;;;;;;;14.96;73.93;98220.16;1711139;75;680032;-73
2023/05/09 10:29:12;;;;;;;5.50;4.20;;;;;;;15.21;73.92;98207.50;1688299;75;1915015;-73
2023/05/09 10:31:45;;;;;;;4.80;3.50;;;;;;;15.46;72.87;98210.59;1703446;75;720845;-72
2023/05/09 10:34:17;;;;;;;3.80;3.40;;;;;;;15.25;72.67;98208.03;1698168;75;1856852;-73
2023/05/09 10:36:51;;;;;;;5.10;3.95;;;;;;;15.10;70.58;98213.72;1702189;75;836613;-76
2023/05/09 10:39:21;;;;;;;4.80;4.25;;;;;;;14.88;71.74;98208.81;1696767;75;1928743;-76
2023/05/09 10:41:53;;;;;;;6.50;4.50;;;;;;;15.20;71.49;98205.22;1702235;75;774336;-75
2023/05/09 10:44:25;;;;;;;5.30;4.50;;;;;;;15.08;74.82;98209.91;1711318;75;672115;-75
2023/05/09 10:46:57;;;;;;;5.70;4.75;;;;;;;15.19;73.26;98196.19;1702362;75;736699;-73
2023/05/09 10:49:28;;;;;;;5.20;4.50;;;;;;;15.01;71.56;98202.09;1696471;75;1976384;-75
2023/05/09 10:52:01;;;;;;;3.80;3.30;;;;;;;15.23;70.85;98201.50;1700106;75;963924;-75
2023/05/09 10:54:33;;;;;;;4.50;3.65;;;;;;;15.07;70.29;98205.66;1711122;75;677981;-72
2023/05/09 10:57:04;;;;;;;4.40;3.75;;;;;;;15.13;72.00;98196.19;1703142;75;675669;-74
2023/05/09 10:59:40;;;;;;;4.40;3.40;;;;;;;15.09;71.58;98192.88;1711170;75;675828;-76
2023/05/09 11:02:16;;;;;;;5.10;3.90;;;;;;;15.14;70.72;98185.91;1701807;75;746493;-76
2023/05/09 11:04:47;;;;;;;5.00;4.50;;;;;;;15.10;72.16;98185.38;1703172;75;677590;-71
2023/05/09 11:07:29;;;;;;;6.80;4.90;;;;;;;15.16;72.46;98177.88;1696797;75;1933561;-73
2023/05/09 11:10:12;;;;;;;5.50;4.60;;;;;;;15.07;72.67;98180.84;1703330;75;674695;-75
2023/05/09 11:12:58;;;;;;;5.30;4.80;;;;;;;15.24;73.48;98184.44;1710995;75;675777;-76
2023/05/09 11:15:29;;;;;;;6.00;4.00;;;;;;;15.40;73.68;98171.22;1702149;75;742086;-73
2023/05/09 11:18:09;;;;;;;4.20;3.60;;;;;;;15.39;71.21;98169.69;1711768;75;673100;-73
2023/05/09 11:20:46;;;;;;;4.20;3.80;;;;;;;15.43;69.54;98176.50;1702017;75;746788;-75
2023/05/09 11:23:20;;;;;;;3.50;3.00;;;;;;;15.80;69.75;98166.59;1700641;75;918545;-73
2023/05/09 11:25:52;;;;;;;5.55;4.15;;;;;;;15.76;68.36;98162.06;1710511;75;705662;-73
2023/05/09 11:28:31;;;;;;;5.10;4.10;;;;;;;15.40;70.99;98163.69;1689503;75;1818550;-73
2023/05/09 11:31:13;;;;;;;6.40;5.05;;;;;;;15.16;71.30;98161.34;1711158;75;677856;-76
2023/05/09 11:33:47;;;;;;;4.20;3.70;;;;;;;15.97;71.75;98154.34;1699488;75;907556;-74
2023/05/09 11:36:24;;;;;;;6.80;5.05;;;;;;;15.60;69.89;98151.72;1708409;75;937259;-74
2023/05/09 11:39:08;;;;;;;6.25;4.95;;;;;;;15.71;70.02;98148.25;1689287;75;1787100;-72
2023/05/09 11:41:46;;;;;;;6.85;5.00;;;;;;;15.84;72.41;98139.50;1700825;75;910332;-74
2023/05/09 11:44:18;;;;;;;6.30;5.10;;;;;;;15.67;70.63;98140.19;1711588;75;677157;-74
2023/05/09 11:46:50;;;;;;;6.90;4.80;;;;;;;15.46;71.97;98136.84;1702644;75;713108;-73